sensor_id;sensor_type;location;lat;lon;timestamp;P1;durP1;ratioP1;P2;durP2;ratioP2
50291;SDS011;36190;54.980;73.388;2023-07-13T00:02:24;12.73;;;5.00;;
50291;SDS011;36190;54.980;73.388;2023-07-13T00:04:52;9.93;;;4.68;;
50291;SDS011;36190;54.980;73.388;2023-07-13T00:07:19;10.93;;;4.75;;
50291;SDS011;36190;54.980;73.388;2023-07-13T00:09:47;12.45;;;4.40;;
50291;SDS011;36190;54.980;73.388;2023-07-13T00:12:24;11.23;;;4.90;;
50291;SDS011;36190;54.980;73.388;2023-07-13T00:14:53;10.77;;;4.90;;
50291;SDS011;36190;54.980;73.388;2023-07-13T00:17:23;13.73;;;5.05;;
50291;SDS011;36190;54.980;73.388;2023-07-13T00:19:50;13.38;;;5.40;;
50291;SDS011;36190;54.980;73.388;2023-07-13T00:22:17;11.68;;;5.00;;
50291;SDS011;36190;54.980;73.388;2023-07-13T00:24:50;11.98;;;5.50;;
50291;SDS011;36190;54.980;73.388;2023-07-13T00:27:18;14.80;;;5.43;;
50291;SDS011;36190;54.980;73.388;2023-07-13T00:29:45;12.30;;;6.07;;
50291;SDS011;36190;54.980;73.388;2023-07-13T00:32:13;12.93;;;5.60;;
50291;SDS011;36190;54.980;73.388;2023-07-13T00:34:42;10.90;;;5.78;;
50291;SDS011;36190;54.980;73.388;2023-07-13T00:37:09;15.00;;;5.63;;
50291;SDS011;36190;54.980;73.388;2023-07-13T00:39:36;12.93;;;5.90;;
50291;SDS011;36190;54.980;73.388;2023-07-13T00:42:04;12.73;;;6.25;;
50291;SDS011;36190;54.980;73.388;2023-07-13T00:44:32;14.93;;;6.30;;
50291;SDS011;36190;54.980;73.388;2023-07-13T00:46:59;10.00;;;6.05;;
50291;SDS011;36190;54.980;73.388;2023-07-13T00:49:27;14.07;;;6.10;;
50291;SDS011;36190;54.980;73.388;2023-07-13T00:51:58;11.52;;;6.28;;
50291;SDS011;36190;54.980;73.388;2023-07-13T00:54:29;15.05;;;6.50;;
50291;SDS011;36190;54.980;73.388;2023-07-13T00:57:05;15.10;;;6.63;;
50291;SDS011;36190;54.980;73.388;2023-07-13T00:59:35;14.10;;;6.30;;
50291;SDS011;36190;54.980;73.388;2023-07-13T01:02:06;17.27;;;6.38;;
50291;SDS011;36190;54.980;73.388;2023-07-13T01:04:34;13.73;;;6.43;;
50291;SDS011;36190;54.980;73.388;2023-07-13T01:07:03;14.75;;;6.13;;
50291;SDS011;36190;54.980;73.388;2023-07-13T01:09:31;13.77;;;6.13;;
50291;SDS011;36190;54.980;73.388;2023-07-13T01:11:58;11.95;;;5.72;;
50291;SDS011;36190;54.980;73.388;2023-07-13T01:14:26;13.30;;;6.10;;
50291;SDS011;36190;54.980;73.388;2023-07-13T01:16:53;13.85;;;6.47;;
50291;SDS011;36190;54.980;73.388;2023-07-13T01:19:24;12.13;;;6.05;;
50291;SDS011;36190;54.980;73.388;2023-07-13T01:22:03;15.82;;;5.68;;
50291;SDS011;36190;54.980;73.388;2023-07-13T01:24:34;15.02;;;6.10;;
50291;SDS011;36190;54.980;73.388;2023-07-13T01:27:02;16.13;;;6.00;;
50291;SDS011;36190;54.980;73.388;2023-07-13T01:29:32;14.85;;;6.65;;
50291;SDS011;36190;54.980;73.388;2023-07-13T01:32:00;17.98;;;6.88;;
50291;SDS011;36190;54.980;73.388;2023-07-13T01:34:27;12.85;;;6.35;;
50291;SDS011;36190;54.980;73.388;2023-07-13T01:36:55;15.95;;;7.50;;
50291;SDS011;36190;54.980;73.388;2023-07-13T01:39:23;19.25;;;8.05;;
50291;SDS011;36190;54.980;73.388;2023-07-13T01:41:51;13.68;;;6.72;;
50291;SDS011;36190;54.980;73.388;2023-07-13T01:44:18;14.40;;;7.00;;
50291;SDS011;36190;54.980;73.388;2023-07-13T01:46:45;16.77;;;7.25;;
50291;SDS011;36190;54.980;73.388;2023-07-13T01:49:12;16.38;;;6.53;;
50291;SDS011;36190;54.980;73.388;2023-07-13T01:51:40;14.98;;;6.68;;
50291;SDS011;36190;54.980;73.388;2023-07-13T01:54:07;14.27;;;6.93;;
50291;SDS011;36190;54.980;73.388;2023-07-13T01:56:36;14.32;;;6.85;;
50291;SDS011;36190;54.980;73.388;2023-07-13T01:59:04;11.25;;;6.95;;
50291;SDS011;36190;54.980;73.388;2023-07-13T02:01:31;16.05;;;6.63;;
50291;SDS011;36190;54.980;73.388;2023-07-13T02:03:58;15.75;;;6.78;;
50291;SDS011;36190;54.980;73.388;2023-07-13T02:06:25;13.30;;;7.47;;
50291;SDS011;36190;54.980;73.388;2023-07-13T02:08:53;13.57;;;6.72;;
50291;SDS011;36190;54.980;73.388;2023-07-13T02:11:20;15.73;;;7.03;;
50291;SDS011;36190;54.980;73.388;2023-07-13T02:13:49;15.20;;;6.43;;
50291;SDS011;36190;54.980;73.388;2023-07-13T02:16:17;12.15;;;6.45;;
50291;SDS011;36190;54.980;73.388;2023-07-13T02:18:44;14.07;;;6.30;;
50291;SDS011;36190;54.980;73.388;2023-07-13T02:21:11;17.27;;;6.78;;
50291;SDS011;36190;54.980;73.388;2023-07-13T02:23:39;15.13;;;6.50;;
50291;SDS011;36190;54.980;73.388;2023-07-13T02:26:06;12.73;;;6.57;;
50291;SDS011;36190;54.980;73.388;2023-07-13T02:28:33;14.20;;;6.95;;
50291;SDS011;36190;54.980;73.388;2023-07-13T02:31:06;19.63;;;6.93;;
50291;SDS011;36190;54.980;73.388;2023-07-13T02:33:34;15.77;;;7.15;;
50291;SDS011;36190;54.980;73.388;2023-07-13T02:36:02;16.83;;;7.28;;
50291;SDS011;36190;54.980;73.388;2023-07-13T02:38:30;12.38;;;6.70;;
50291;SDS011;36190;54.980;73.388;2023-07-13T02:40:58;14.18;;;7.55;;
50291;SDS011;36190;54.980;73.388;2023-07-13T02:43:26;14.45;;;7.25;;
50291;SDS011;36190;54.980;73.388;2023-07-13T02:45:55;14.88;;;7.57;;
50291;SDS011;36190;54.980;73.388;2023-07-13T02:48:27;15.20;;;7.38;;
50291;SDS011;36190;54.980;73.388;2023-07-13T02:50:54;14.65;;;7.03;;
50291;SDS011;36190;54.980;73.388;2023-07-13T02:53:21;13.75;;;7.13;;
50291;SDS011;36190;54.980;73.388;2023-07-13T02:55:49;15.80;;;7.25;;
50291;SDS011;36190;54.980;73.388;2023-07-13T02:58:16;15.85;;;7.80;;
50291;SDS011;36190;54.980;73.388;2023-07-13T03:00:44;18.65;;;7.85;;
50291;SDS011;36190;54.980;73.388;2023-07-13T03:03:12;17.05;;;7.40;;
50291;SDS011;36190;54.980;73.388;2023-07-13T03:05:42;15.02;;;8.25;;
50291;SDS011;36190;54.980;73.388;2023-07-13T03:08:15;16.73;;;8.13;;
50291;SDS011;36190;54.980;73.388;2023-07-13T03:10:44;16.35;;;8.13;;
50291;SDS011;36190;54.980;73.388;2023-07-13T03:13:11;14.50;;;7.70;;
50291;SDS011;36190;54.980;73.388;2023-07-13T03:15:39;17.92;;;8.32;;
50291;SDS011;36190;54.980;73.388;2023-07-13T03:18:06;16.08;;;9.00;;
50291;SDS011;36190;54.980;73.388;2023-07-13T03:20:33;17.88;;;8.48;;
50291;SDS011;36190;54.980;73.388;2023-07-13T03:23:03;19.05;;;8.60;;
50291;SDS011;36190;54.980;73.388;2023-07-13T03:25:30;19.55;;;8.45;;
50291;SDS011;36190;54.980;73.388;2023-07-13T03:27:58;28.90;;;9.05;;
50291;SDS011;36190;54.980;73.388;2023-07-13T03:30:28;17.25;;;9.18;;
50291;SDS011;36190;54.980;73.388;2023-07-13T03:32:55;15.90;;;8.95;;
50291;SDS011;36190;54.980;73.388;2023-07-13T03:35:22;17.58;;;9.02;;
50291;SDS011;36190;54.980;73.388;2023-07-13T03:37:49;15.95;;;9.15;;
50291;SDS011;36190;54.980;73.388;2023-07-13T03:40:18;17.85;;;8.90;;
50291;SDS011;36190;54.980;73.388;2023-07-13T03:42:47;16.58;;;9.98;;
50291;SDS011;36190;54.980;73.388;2023-07-13T03:45:14;16.67;;;9.52;;
50291;SDS011;36190;54.980;73.388;2023-07-13T03:47:41;18.92;;;9.60;;
50291;SDS011;36190;54.980;73.388;2023-07-13T03:50:09;19.73;;;9.88;;
50291;SDS011;36190;54.980;73.388;2023-07-13T03:52:36;17.65;;;11.02;;
50291;SDS011;36190;54.980;73.388;2023-07-13T03:55:04;18.02;;;10.38;;
50291;SDS011;36190;54.980;73.388;2023-07-13T03:57:33;17.65;;;9.52;;
50291;SDS011;36190;54.980;73.388;2023-07-13T04:00:01;25.33;;;10.25;;
50291;SDS011;36190;54.980;73.388;2023-07-13T04:02:29;19.52;;;10.25;;
50291;SDS011;36190;54.980;73.388;2023-07-13T04:04:56;18.17;;;10.15;;
50291;SDS011;36190;54.980;73.388;2023-07-13T04:07:23;17.15;;;9.80;;
50291;SDS011;36190;54.980;73.388;2023-07-13T04:09:51;22.00;;;10.13;;
50291;SDS011;36190;54.980;73.388;2023-07-13T04:12:18;15.75;;;9.50;;
50291;SDS011;36190;54.980;73.388;2023-07-13T04:14:47;17.77;;;10.35;;
50291;SDS011;36190;54.980;73.388;2023-07-13T04:17:14;16.63;;;9.73;;
50291;SDS011;36190;54.980;73.388;2023-07-13T04:19:41;18.60;;;9.60;;
50291;SDS011;36190;54.980;73.388;2023-07-13T04:22:09;18.40;;;9.70;;
50291;SDS011;36190;54.980;73.388;2023-07-13T04:24:36;21.70;;;10.32;;
50291;SDS011;36190;54.980;73.388;2023-07-13T04:27:04;24.80;;;9.90;;
50291;SDS011;36190;54.980;73.388;2023-07-13T04:29:31;21.98;;;10.02;;
50291;SDS011;36190;54.980;73.388;2023-07-13T04:32:00;21.88;;;10.20;;
50291;SDS011;36190;54.980;73.388;2023-07-13T04:34:27;20.25;;;10.02;;
50291;SDS011;36190;54.980;73.388;2023-07-13T04:36:55;30.05;;;12.27;;
50291;SDS011;36190;54.980;73.388;2023-07-13T04:39:22;27.38;;;11.38;;
50291;SDS011;36190;54.980;73.388;2023-07-13T04:41:49;18.70;;;10.18;;
50291;SDS011;36190;54.980;73.388;2023-07-13T04:44:16;22.55;;;10.43;;
50291;SDS011;36190;54.980;73.388;2023-07-13T04:46:44;27.55;;;10.95;;
50291;SDS011;36190;54.980;73.388;2023-07-13T04:49:12;19.20;;;10.80;;
50291;SDS011;36190;54.980;73.388;2023-07-13T04:51:40;23.48;;;10.82;;
50291;SDS011;36190;54.980;73.388;2023-07-13T04:54:07;24.60;;;11.00;;
50291;SDS011;36190;54.980;73.388;2023-07-13T04:56:34;20.58;;;10.90;;
50291;SDS011;36190;54.980;73.388;2023-07-13T04:59:01;20.15;;;10.55;;
50291;SDS011;36190;54.980;73.388;2023-07-13T05:01:29;21.95;;;10.98;;
50291;SDS011;36190;54.980;73.388;2023-07-13T05:03:56;20.45;;;11.10;;
50291;SDS011;36190;54.980;73.388;2023-07-13T05:06:26;23.48;;;11.57;;
50291;SDS011;36190;54.980;73.388;2023-07-13T05:08:53;25.40;;;15.13;;
50291;SDS011;36190;54.980;73.388;2023-07-13T05:11:21;23.92;;;11.95;;
50291;SDS011;36190;54.980;73.388;2023-07-13T05:13:48;19.40;;;10.45;;
50291;SDS011;36190;54.980;73.388;2023-07-13T05:16:15;17.85;;;10.02;;
50291;SDS011;36190;54.980;73.388;2023-07-13T05:18:42;25.17;;;11.05;;
50291;SDS011;36190;54.980;73.388;2023-07-13T05:21:10;25.45;;;11.60;;
50291;SDS011;36190;54.980;73.388;2023-07-13T05:23:39;22.27;;;10.48;;
50291;SDS011;36190;54.980;73.388;2023-07-13T05:26:08;23.98;;;11.93;;
50291;SDS011;36190;54.980;73.388;2023-07-13T05:28:35;26.63;;;12.23;;
50291;SDS011;36190;54.980;73.388;2023-07-13T05:31:03;29.95;;;12.30;;
50291;SDS011;36190;54.980;73.388;2023-07-13T05:33:31;26.70;;;12.43;;
50291;SDS011;36190;54.980;73.388;2023-07-13T05:35:58;23.25;;;11.68;;
50291;SDS011;36190;54.980;73.388;2023-07-13T05:38:26;23.08;;;11.35;;
50291;SDS011;36190;54.980;73.388;2023-07-13T05:40:55;23.63;;;11.98;;
50291;SDS011;36190;54.980;73.388;2023-07-13T05:43:23;24.48;;;11.77;;
50291;SDS011;36190;54.980;73.388;2023-07-13T05:45:51;28.23;;;12.23;;
50291;SDS011;36190;54.980;73.388;2023-07-13T05:48:20;27.65;;;12.10;;
50291;SDS011;36190;54.980;73.388;2023-07-13T05:50:47;24.08;;;12.40;;
50291;SDS011;36190;54.980;73.388;2023-07-13T05:53:15;32.88;;;12.57;;
50291;SDS011;36190;54.980;73.388;2023-07-13T05:55:42;23.73;;;12.02;;
50291;SDS011;36190;54.980;73.388;2023-07-13T05:58:14;32.10;;;12.48;;
50291;SDS011;36190;54.980;73.388;2023-07-13T06:00:41;25.35;;;12.02;;
50291;SDS011;36190;54.980;73.388;2023-07-13T06:03:08;26.35;;;11.35;;
50291;SDS011;36190;54.980;73.388;2023-07-13T06:05:36;32.45;;;13.73;;
50291;SDS011;36190;54.980;73.388;2023-07-13T06:08:04;28.15;;;12.05;;
50291;SDS011;36190;54.980;73.388;2023-07-13T06:10:34;29.67;;;13.40;;
50291;SDS011;36190;54.980;73.388;2023-07-13T06:13:02;28.17;;;12.20;;
50291;SDS011;36190;54.980;73.388;2023-07-13T06:15:32;29.73;;;13.00;;
50291;SDS011;36190;54.980;73.388;2023-07-13T06:17:59;27.98;;;12.80;;
50291;SDS011;36190;54.980;73.388;2023-07-13T06:20:26;34.08;;;13.20;;
50291;SDS011;36190;54.980;73.388;2023-07-13T06:22:54;30.60;;;13.05;;
50291;SDS011;36190;54.980;73.388;2023-07-13T06:25:21;31.75;;;13.70;;
50291;SDS011;36190;54.980;73.388;2023-07-13T06:27:49;36.25;;;14.70;;
50291;SDS011;36190;54.980;73.388;2023-07-13T06:30:16;41.35;;;13.35;;
50291;SDS011;36190;54.980;73.388;2023-07-13T06:32:44;32.08;;;12.98;;
50291;SDS011;36190;54.980;73.388;2023-07-13T06:35:12;35.78;;;13.18;;
50291;SDS011;36190;54.980;73.388;2023-07-13T06:37:39;40.88;;;13.98;;
50291;SDS011;36190;54.980;73.388;2023-07-13T06:40:07;36.20;;;13.73;;
50291;SDS011;36190;54.980;73.388;2023-07-13T06:42:35;30.45;;;13.43;;
50291;SDS011;36190;54.980;73.388;2023-07-13T06:45:04;35.10;;;13.77;;
50291;SDS011;36190;54.980;73.388;2023-07-13T06:47:32;29.20;;;13.55;;
50291;SDS011;36190;54.980;73.388;2023-07-13T06:50:01;32.42;;;13.25;;
50291;SDS011;36190;54.980;73.388;2023-07-13T06:52:28;33.30;;;14.00;;
50291;SDS011;36190;54.980;73.388;2023-07-13T06:54:55;38.28;;;14.10;;
50291;SDS011;36190;54.980;73.388;2023-07-13T06:57:22;41.65;;;14.55;;
50291;SDS011;36190;54.980;73.388;2023-07-13T06:59:50;32.53;;;13.00;;
50291;SDS011;36190;54.980;73.388;2023-07-13T07:02:17;35.83;;;12.35;;
50291;SDS011;36190;54.980;73.388;2023-07-13T07:04:44;34.13;;;12.88;;
50291;SDS011;36190;54.980;73.388;2023-07-13T07:07:13;28.45;;;12.90;;
50291;SDS011;36190;54.980;73.388;2023-07-13T07:09:40;31.20;;;12.68;;
50291;SDS011;36190;54.980;73.388;2023-07-13T07:12:08;33.83;;;12.80;;
50291;SDS011;36190;54.980;73.388;2023-07-13T07:14:35;35.67;;;12.60;;
50291;SDS011;36190;54.980;73.388;2023-07-13T07:17:02;32.35;;;13.27;;
50291;SDS011;36190;54.980;73.388;2023-07-13T07:19:30;41.33;;;14.82;;
50291;SDS011;36190;54.980;73.388;2023-07-13T07:21:57;43.65;;;15.02;;
50291;SDS011;36190;54.980;73.388;2023-07-13T07:24:26;40.28;;;13.93;;
50291;SDS011;36190;54.980;73.388;2023-07-13T07:26:53;33.97;;;14.65;;
50291;SDS011;36190;54.980;73.388;2023-07-13T07:29:20;31.10;;;14.18;;
50291;SDS011;36190;54.980;73.388;2023-07-13T07:31:51;29.92;;;12.82;;
50291;SDS011;36190;54.980;73.388;2023-07-13T07:34:18;31.58;;;13.93;;
50291;SDS011;36190;54.980;73.388;2023-07-13T07:36:46;24.13;;;12.93;;
50291;SDS011;36190;54.980;73.388;2023-07-13T07:39:13;26.92;;;12.88;;
50291;SDS011;36190;54.980;73.388;2023-07-13T07:41:43;26.67;;;12.85;;
50291;SDS011;36190;54.980;73.388;2023-07-13T07:44:10;38.45;;;13.65;;
50291;SDS011;36190;54.980;73.388;2023-07-13T07:46:38;28.10;;;13.30;;
50291;SDS011;36190;54.980;73.388;2023-07-13T07:49:06;30.27;;;12.80;;
50291;SDS011;36190;54.980;73.388;2023-07-13T07:51:34;26.02;;;12.52;;
50291;SDS011;36190;54.980;73.388;2023-07-13T07:54:01;27.65;;;12.20;;
50291;SDS011;36190;54.980;73.388;2023-07-13T07:56:28;28.60;;;12.38;;
50291;SDS011;36190;54.980;73.388;2023-07-13T07:58:57;26.58;;;12.32;;
50291;SDS011;36190;54.980;73.388;2023-07-13T08:01:24;26.77;;;11.80;;
50291;SDS011;36190;54.980;73.388;2023-07-13T08:03:51;25.38;;;12.52;;
50291;SDS011;36190;54.980;73.388;2023-07-13T08:06:19;24.60;;;12.05;;
50291;SDS011;36190;54.980;73.388;2023-07-13T08:08:47;20.13;;;11.52;;
50291;SDS011;36190;54.980;73.388;2023-07-13T08:11:14;22.23;;;11.52;;
50291;SDS011;36190;54.980;73.388;2023-07-13T08:13:43;22.52;;;11.05;;
50291;SDS011;36190;54.980;73.388;2023-07-13T08:16:11;20.95;;;10.23;;
50291;SDS011;36190;54.980;73.388;2023-07-13T08:18:39;23.48;;;11.63;;
50291;SDS011;36190;54.980;73.388;2023-07-13T08:21:06;20.25;;;11.68;;
50291;SDS011;36190;54.980;73.388;2023-07-13T08:23:34;24.35;;;11.13;;
50291;SDS011;36190;54.980;73.388;2023-07-13T08:26:02;25.40;;;11.85;;
50291;SDS011;36190;54.980;73.388;2023-07-13T08:28:30;22.63;;;10.85;;
50291;SDS011;36190;54.980;73.388;2023-07-13T08:31:00;26.05;;;12.15;;
50291;SDS011;36190;54.980;73.388;2023-07-13T08:33:29;25.00;;;12.07;;
50291;SDS011;36190;54.980;73.388;2023-07-13T08:35:56;23.27;;;11.50;;
50291;SDS011;36190;54.980;73.388;2023-07-13T08:38:24;19.50;;;10.10;;
50291;SDS011;36190;54.980;73.388;2023-07-13T08:40:51;23.33;;;10.95;;
50291;SDS011;36190;54.980;73.388;2023-07-13T08:43:20;19.77;;;10.85;;
50291;SDS011;36190;54.980;73.388;2023-07-13T08:45:53;20.85;;;10.88;;
50291;SDS011;36190;54.980;73.388;2023-07-13T08:48:24;18.65;;;11.02;;
50291;SDS011;36190;54.980;73.388;2023-07-13T08:50:57;26.80;;;12.85;;
50291;SDS011;36190;54.980;73.388;2023-07-13T08:53:29;23.30;;;12.70;;
50291;SDS011;36190;54.980;73.388;2023-07-13T08:56:01;30.88;;;13.23;;
50291;SDS011;36190;54.980;73.388;2023-07-13T08:58:29;23.83;;;11.40;;
50291;SDS011;36190;54.980;73.388;2023-07-13T09:01:00;21.77;;;12.05;;
50291;SDS011;36190;54.980;73.388;2023-07-13T09:03:36;23.45;;;11.27;;
50291;SDS011;36190;54.980;73.388;2023-07-13T09:06:10;20.63;;;10.15;;
50291;SDS011;36190;54.980;73.388;2023-07-13T09:08:46;22.00;;;11.05;;
50291;SDS011;36190;54.980;73.388;2023-07-13T09:11:26;22.30;;;11.35;;
50291;SDS011;36190;54.980;73.388;2023-07-13T09:14:05;21.83;;;10.45;;
50291;SDS011;36190;54.980;73.388;2023-07-13T09:16:46;19.65;;;10.27;;
50291;SDS011;36190;54.980;73.388;2023-07-13T09:19:16;21.38;;;10.00;;
50291;SDS011;36190;54.980;73.388;2023-07-13T09:21:50;20.52;;;9.55;;
50291;SDS011;36190;54.980;73.388;2023-07-13T09:24:27;22.73;;;10.35;;
50291;SDS011;36190;54.980;73.388;2023-07-13T09:27:03;21.75;;;9.40;;
50291;SDS011;36190;54.980;73.388;2023-07-13T09:29:43;16.23;;;8.95;;
50291;SDS011;36190;54.980;73.388;2023-07-13T09:32:16;18.83;;;8.65;;
50291;SDS011;36190;54.980;73.388;2023-07-13T09:34:51;19.92;;;8.45;;
50291;SDS011;36190;54.980;73.388;2023-07-13T09:37:23;19.98;;;8.98;;
50291;SDS011;36190;54.980;73.388;2023-07-13T09:39:55;18.60;;;8.90;;
50291;SDS011;36190;54.980;73.388;2023-07-13T09:42:24;16.67;;;8.20;;
50291;SDS011;36190;54.980;73.388;2023-07-13T09:44:54;13.77;;;8.02;;
50291;SDS011;36190;54.980;73.388;2023-07-13T09:47:24;13.63;;;7.75;;
50291;SDS011;36190;54.980;73.388;2023-07-13T09:49:54;14.67;;;7.57;;
50291;SDS011;36190;54.980;73.388;2023-07-13T09:52:25;13.50;;;7.38;;
50291;SDS011;36190;54.980;73.388;2023-07-13T09:54:54;12.57;;;7.10;;
50291;SDS011;36190;54.980;73.388;2023-07-13T09:57:25;14.20;;;6.82;;
50291;SDS011;36190;54.980;73.388;2023-07-13T09:59:54;9.80;;;5.53;;
50291;SDS011;36190;54.980;73.388;2023-07-13T10:02:25;13.52;;;5.80;;
50291;SDS011;36190;54.980;73.388;2023-07-13T10:04:57;11.38;;;6.32;;
50291;SDS011;36190;54.980;73.388;2023-07-13T10:07:27;9.95;;;6.00;;
50291;SDS011;36190;54.980;73.388;2023-07-13T10:09:55;12.73;;;5.22;;
50291;SDS011;36190;54.980;73.388;2023-07-13T10:12:24;9.95;;;5.07;;
50291;SDS011;36190;54.980;73.388;2023-07-13T10:14:52;11.35;;;5.65;;
50291;SDS011;36190;54.980;73.388;2023-07-13T10:17:25;11.57;;;5.78;;
50291;SDS011;36190;54.980;73.388;2023-07-13T10:19:57;11.32;;;5.85;;
50291;SDS011;36190;54.980;73.388;2023-07-13T10:22:32;13.43;;;6.18;;
50291;SDS011;36190;54.980;73.388;2023-07-13T10:25:11;13.55;;;6.07;;
50291;SDS011;36190;54.980;73.388;2023-07-13T10:27:42;12.40;;;5.53;;
50291;SDS011;36190;54.980;73.388;2023-07-13T10:30:12;13.00;;;5.93;;
50291;SDS011;36190;54.980;73.388;2023-07-13T10:32:42;14.02;;;6.18;;
50291;SDS011;36190;54.980;73.388;2023-07-13T10:35:10;10.52;;;6.05;;
50291;SDS011;36190;54.980;73.388;2023-07-13T10:37:43;13.43;;;5.75;;
50291;SDS011;36190;54.980;73.388;2023-07-13T10:40:16;12.32;;;6.22;;
50291;SDS011;36190;54.980;73.388;2023-07-13T10:42:48;11.45;;;5.80;;
50291;SDS011;36190;54.980;73.388;2023-07-13T10:45:19;9.57;;;5.30;;
50291;SDS011;36190;54.980;73.388;2023-07-13T10:47:48;10.45;;;6.03;;
50291;SDS011;36190;54.980;73.388;2023-07-13T10:50:19;10.93;;;5.57;;
50291;SDS011;36190;54.980;73.388;2023-07-13T10:55:33;12.35;;;5.43;;
50291;SDS011;36190;54.980;73.388;2023-07-13T10:58:03;11.68;;;4.90;;
50291;SDS011;36190;54.980;73.388;2023-07-13T11:00:46;9.23;;;4.72;;
50291;SDS011;36190;54.980;73.388;2023-07-13T11:03:16;9.48;;;4.72;;
50291;SDS011;36190;54.980;73.388;2023-07-13T11:05:47;8.80;;;4.65;;
50291;SDS011;36190;54.980;73.388;2023-07-13T11:08:19;8.73;;;4.78;;
50291;SDS011;36190;54.980;73.388;2023-07-13T11:10:58;8.38;;;4.55;;
50291;SDS011;36190;54.980;73.388;2023-07-13T11:16:34;11.82;;;4.88;;
50291;SDS011;36190;54.980;73.388;2023-07-13T11:19:24;9.02;;;5.13;;
50291;SDS011;36190;54.980;73.388;2023-07-13T11:25:25;9.23;;;4.93;;
50291;SDS011;36190;54.980;73.388;2023-07-13T11:28:04;9.85;;;4.70;;
50291;SDS011;36190;54.980;73.388;2023-07-13T11:30:39;9.98;;;4.85;;
50291;SDS011;36190;54.980;73.388;2023-07-13T11:33:14;10.30;;;5.05;;
50291;SDS011;36190;54.980;73.388;2023-07-13T11:35:57;10.63;;;5.10;;
50291;SDS011;36190;54.980;73.388;2023-07-13T11:38:28;8.80;;;4.70;;
50291;SDS011;36190;54.980;73.388;2023-07-13T11:41:02;9.18;;;5.10;;
50291;SDS011;36190;54.980;73.388;2023-07-13T11:43:31;10.43;;;5.00;;
50291;SDS011;36190;54.980;73.388;2023-07-13T11:46:11;8.88;;;4.70;;
50291;SDS011;36190;54.980;73.388;2023-07-13T11:48:40;8.60;;;4.85;;
50291;SDS011;36190;54.980;73.388;2023-07-13T11:51:09;10.80;;;5.07;;
50291;SDS011;36190;54.980;73.388;2023-07-13T11:53:47;10.88;;;5.00;;
50291;SDS011;36190;54.980;73.388;2023-07-13T11:56:18;11.30;;;5.20;;
50291;SDS011;36190;54.980;73.388;2023-07-13T11:58:48;16.30;;;5.60;;
50291;SDS011;36190;54.980;73.388;2023-07-13T12:01:18;10.48;;;5.20;;
50291;SDS011;36190;54.980;73.388;2023-07-13T12:03:48;11.07;;;5.10;;
50291;SDS011;36190;54.980;73.388;2023-07-13T12:06:21;8.98;;;4.88;;
50291;SDS011;36190;54.980;73.388;2023-07-13T12:08:57;13.05;;;5.40;;
50291;SDS011;36190;54.980;73.388;2023-07-13T12:11:27;9.50;;;5.00;;
50291;SDS011;36190;54.980;73.388;2023-07-13T12:13:54;9.20;;;4.70;;
50291;SDS011;36190;54.980;73.388;2023-07-13T12:16:25;9.90;;;5.15;;
50291;SDS011;36190;54.980;73.388;2023-07-13T12:18:55;11.70;;;5.40;;
50291;SDS011;36190;54.980;73.388;2023-07-13T12:21:29;10.45;;;5.75;;
50291;SDS011;36190;54.980;73.388;2023-07-13T12:23:58;13.50;;;6.07;;
50291;SDS011;36190;54.980;73.388;2023-07-13T12:26:30;10.50;;;5.70;;
50291;SDS011;36190;54.980;73.388;2023-07-13T12:28:59;11.07;;;5.80;;
50291;SDS011;36190;54.980;73.388;2023-07-13T12:31:31;11.07;;;5.80;;
50291;SDS011;36190;54.980;73.388;2023-07-13T12:34:07;13.45;;;6.13;;
50291;SDS011;36190;54.980;73.388;2023-07-13T12:36:37;11.57;;;5.55;;
50291;SDS011;36190;54.980;73.388;2023-07-13T12:39:14;11.75;;;5.55;;
50291;SDS011;36190;54.980;73.388;2023-07-13T12:41:45;10.43;;;5.70;;
50291;SDS011;36190;54.980;73.388;2023-07-13T12:44:13;14.15;;;6.20;;
50291;SDS011;36190;54.980;73.388;2023-07-13T12:46:51;10.65;;;5.80;;
50291;SDS011;36190;54.980;73.388;2023-07-13T12:49:23;11.48;;;5.55;;
50291;SDS011;36190;54.980;73.388;2023-07-13T12:51:57;14.23;;;6.20;;
50291;SDS011;36190;54.980;73.388;2023-07-13T12:54:26;13.07;;;6.27;;
50291;SDS011;36190;54.980;73.388;2023-07-13T12:56:57;11.30;;;6.38;;
50291;SDS011;36190;54.980;73.388;2023-07-13T12:59:30;11.93;;;5.95;;
50291;SDS011;36190;54.980;73.388;2023-07-13T13:02:01;14.85;;;6.03;;
50291;SDS011;36190;54.980;73.388;2023-07-13T13:04:29;12.25;;;6.03;;
50291;SDS011;36190;54.980;73.388;2023-07-13T13:07:00;16.58;;;7.40;;
50291;SDS011;36190;54.980;73.388;2023-07-13T13:09:29;23.63;;;7.83;;
50291;SDS011;36190;54.980;73.388;2023-07-13T13:11:57;28.42;;;8.43;;
50291;SDS011;36190;54.980;73.388;2023-07-13T13:14:25;35.08;;;8.82;;
50291;SDS011;36190;54.980;73.388;2023-07-13T13:16:52;18.63;;;6.88;;
50291;SDS011;36190;54.980;73.388;2023-07-13T13:19:21;16.60;;;7.15;;
50291;SDS011;36190;54.980;73.388;2023-07-13T13:21:52;20.05;;;6.72;;
50291;SDS011;36190;54.980;73.388;2023-07-13T13:24:22;19.15;;;6.70;;
50291;SDS011;36190;54.980;73.388;2023-07-13T13:26:51;18.48;;;6.60;;
50291;SDS011;36190;54.980;73.388;2023-07-13T13:29:23;15.02;;;6.03;;
50291;SDS011;36190;54.980;73.388;2023-07-13T13:31:51;13.02;;;6.32;;
50291;SDS011;36190;54.980;73.388;2023-07-13T13:34:19;17.52;;;6.30;;
50291;SDS011;36190;54.980;73.388;2023-07-13T13:36:49;14.25;;;6.22;;
50291;SDS011;36190;54.980;73.388;2023-07-13T13:39:21;16.73;;;7.15;;
50291;SDS011;36190;54.980;73.388;2023-07-13T13:41:50;19.20;;;6.20;;
50291;SDS011;36190;54.980;73.388;2023-07-13T13:44:18;11.90;;;6.90;;
50291;SDS011;36190;54.980;73.388;2023-07-13T13:46:48;12.88;;;7.10;;
50291;SDS011;36190;54.980;73.388;2023-07-13T13:49:18;11.43;;;6.20;;
50291;SDS011;36190;54.980;73.388;2023-07-13T13:51:49;11.20;;;6.07;;
50291;SDS011;36190;54.980;73.388;2023-07-13T13:54:17;12.55;;;6.43;;
50291;SDS011;36190;54.980;73.388;2023-07-13T13:56:46;14.23;;;6.22;;
50291;SDS011;36190;54.980;73.388;2023-07-13T13:59:15;11.57;;;6.90;;
50291;SDS011;36190;54.980;73.388;2023-07-13T14:01:43;14.02;;;6.90;;
50291;SDS011;36190;54.980;73.388;2023-07-13T14:04:16;13.10;;;6.13;;
50291;SDS011;36190;54.980;73.388;2023-07-13T14:06:45;13.13;;;6.60;;
50291;SDS011;36190;54.980;73.388;2023-07-13T14:09:13;12.43;;;6.53;;
50291;SDS011;36190;54.980;73.388;2023-07-13T14:11:43;12.90;;;6.15;;
50291;SDS011;36190;54.980;73.388;2023-07-13T14:14:12;12.43;;;6.53;;
50291;SDS011;36190;54.980;73.388;2023-07-13T14:16:44;12.52;;;6.72;;
50291;SDS011;36190;54.980;73.388;2023-07-13T14:19:12;15.15;;;7.47;;
50291;SDS011;36190;54.980;73.388;2023-07-13T14:21:42;12.60;;;6.45;;
50291;SDS011;36190;54.980;73.388;2023-07-13T14:24:09;22.48;;;7.35;;
50291;SDS011;36190;54.980;73.388;2023-07-13T14:26:37;19.10;;;7.07;;
50291;SDS011;36190;54.980;73.388;2023-07-13T14:29:11;14.30;;;7.35;;
50291;SDS011;36190;54.980;73.388;2023-07-13T14:31:40;17.88;;;7.22;;
50291;SDS011;36190;54.980;73.388;2023-07-13T14:34:08;17.05;;;7.22;;
50291;SDS011;36190;54.980;73.388;2023-07-13T14:36:38;20.63;;;7.80;;
50291;SDS011;36190;54.980;73.388;2023-07-13T14:39:12;23.10;;;7.68;;
50291;SDS011;36190;54.980;73.388;2023-07-13T14:41:41;18.77;;;7.35;;